sensor_id;sensor_type;location;lat;lon;timestamp;pressure;altitude;pressure_sealevel;temperature;humidity
40285;BME280;25997;50.214;19.354;2022-11-20T00:02:02;97481.63;;;-5.14;48.35
40285;BME280;25997;50.214;19.354;2022-11-20T00:05:05;97487.03;;;-5.21;49.39
40285;BME280;25997;50.214;19.354;2022-11-20T00:08:10;97480.19;;;-5.10;49.81
40285;BME280;25997;50.214;19.354;2022-11-20T00:11:13;97482.88;;;-4.97;49.75
40285;BME280;25997;50.214;19.354;2022-11-20T00:14:16;97480.97;;;-4.78;50.14
40285;BME280;25997;50.214;19.354;2022-11-20T00:17:19;97475.19;;;-4.64;50.76
40285;BME280;25997;50.214;19.354;2022-11-20T00:20:21;97472.22;;;-4.47;50.33
40285;BME280;25997;50.214;19.354;2022-11-20T00:23:25;97469.88;;;-4.32;50.16
40285;BME280;25997;50.214;19.354;2022-11-20T00:26:28;97454.53;;;-4.21;50.07
40285;BME280;25997;50.214;19.354;2022-11-20T00:29:31;97457.50;;;-4.15;49.82
40285;BME280;25997;50.214;19.354;2022-11-20T00:32:34;97455.28;;;-4.10;50.21
40285;BME280;25997;50.214;19.354;2022-11-20T00:35:36;97454.84;;;-4.05;50.24
40285;BME280;25997;50.214;19.354;2022-11-20T00:38:40;97456.94;;;-3.99;50.24
40285;BME280;25997;50.214;19.354;2022-11-20T00:41:43;97459.94;;;-3.93;49.69
40285;BME280;25997;50.214;19.354;2022-11-20T00:44:45;97453.38;;;-3.89;49.51
40285;BME280;25997;50.214;19.354;2022-11-20T00:47:48;97459.06;;;-3.94;48.97
40285;BME280;25997;50.214;19.354;2022-11-20T00:50:50;97464.88;;;-3.96;48.93
40285;BME280;25997;50.214;19.354;2022-11-20T00:53:56;97458.84;;;-4.08;49.25
40285;BME280;25997;50.214;19.354;2022-11-20T00:56:58;97460.75;;;-4.17;49.31
40285;BME280;25997;50.214;19.354;2022-11-20T01:00:01;97461.22;;;-4.23;49.19
40285;BME280;25997;50.214;19.354;2022-11-20T01:03:03;97458.88;;;-4.31;48.68
40285;BME280;25997;50.214;19.354;2022-11-20T01:06:08;97456.50;;;-4.40;49.52
40285;BME280;25997;50.214;19.354;2022-11-20T01:09:13;97453.75;;;-4.43;49.20
40285;BME280;25997;50.214;19.354;2022-11-20T01:12:16;97447.38;;;-4.48;48.92
40285;BME280;25997;50.214;19.354;2022-11-20T01:15:19;97446.47;;;-4.60;48.80
40285;BME280;25997;50.214;19.354;2022-11-20T01:18:21;97447.03;;;-4.64;49.55
40285;BME280;25997;50.214;19.354;2022-11-20T01:21:25;97444.69;;;-4.61;49.48
40285;BME280;25997;50.214;19.354;2022-11-20T01:24:29;97441.56;;;-4.57;49.53
40285;BME280;25997;50.214;19.354;2022-11-20T01:27:32;97428.88;;;-4.79;48.39
40285;BME280;25997;50.214;19.354;2022-11-20T01:30:34;97426.94;;;-4.93;48.73
40285;BME280;25997;50.214;19.354;2022-11-20T01:33:37;97423.84;;;-5.00;48.97
40285;BME280;25997;50.214;19.354;2022-11-20T01:36:40;97423.66;;;-5.13;48.53
40285;BME280;25997;50.214;19.354;2022-11-20T01:39:44;97429.63;;;-5.24;48.80
40285;BME280;25997;50.214;19.354;2022-11-20T01:42:53;97428.50;;;-5.28;49.32
40285;BME280;25997;50.214;19.354;2022-11-20T01:46:18;97424.09;;;-5.19;49.51
40285;BME280;25997;50.214;19.354;2022-11-20T01:49:24;97423.44;;;-5.16;49.07
40285;BME280;25997;50.214;19.354;2022-11-20T01:52:30;97422.66;;;-5.15;48.92
40285;BME280;25997;50.214;19.354;2022-11-20T01:55:39;97418.34;;;-5.16;48.78
40285;BME280;25997;50.214;19.354;2022-11-20T01:58:47;97414.88;;;-5.17;48.72
40285;BME280;25997;50.214;19.354;2022-11-20T02:01:51;97414.22;;;-5.14;49.29
40285;BME280;25997;50.214;19.354;2022-11-20T02:04:56;97418.03;;;-5.09;49.59
40285;BME280;25997;50.214;19.354;2022-11-20T02:08:04;97420.28;;;-5.02;49.89
40285;BME280;25997;50.214;19.354;2022-11-20T02:11:08;97425.28;;;-4.92;49.85
40285;BME280;25997;50.214;19.354;2022-11-20T02:14:11;97426.72;;;-4.84;49.76
40285;BME280;25997;50.214;19.354;2022-11-20T02:17:13;97421.63;;;-4.84;49.83
40285;BME280;25997;50.214;19.354;2022-11-20T02:20:16;97435.53;;;-4.81;49.82
40285;BME280;25997;50.214;19.354;2022-11-20T02:23:22;97444.53;;;-4.86;49.35
40285;BME280;25997;50.214;19.354;2022-11-20T02:26:31;97438.50;;;-4.98;49.50
40285;BME280;25997;50.214;19.354;2022-11-20T02:29:37;97447.75;;;-4.88;49.54
40285;BME280;25997;50.214;19.354;2022-11-20T02:32:40;97443.88;;;-4.83;49.76
40285;BME280;25997;50.214;19.354;2022-11-20T02:35:44;97451.31;;;-4.86;49.15
40285;BME280;25997;50.214;19.354;2022-11-20T02:38:48;97456.09;;;-4.91;50.17
40285;BME280;25997;50.214;19.354;2022-11-20T02:41:54;97455.78;;;-4.84;50.33
40285;BME280;25997;50.214;19.354;2022-11-20T02:44:58;97453.81;;;-4.76;50.35
40285;BME280;25997;50.214;19.354;2022-11-20T02:48:00;97450.13;;;-4.68;49.63
40285;BME280;25997;50.214;19.354;2022-11-20T02:51:03;97452.69;;;-4.68;49.19
40285;BME280;25997;50.214;19.354;2022-11-20T02:54:05;97439.22;;;-4.77;48.69
40285;BME280;25997;50.214;19.354;2022-11-20T02:57:09;97441.41;;;-4.93;48.36
40285;BME280;25997;50.214;19.354;2022-11-20T03:00:13;97441.91;;;-5.09;47.96
40285;BME280;25997;50.214;19.354;2022-11-20T03:03:15;97446.41;;;-5.28;49.15
40285;BME280;25997;50.214;19.354;2022-11-20T03:06:18;97438.84;;;-5.26;49.73
40285;BME280;25997;50.214;19.354;2022-11-20T03:09:20;97438.91;;;-5.15;49.84
40285;BME280;25997;50.214;19.354;2022-11-20T03:12:24;97437.03;;;-5.06;49.44
40285;BME280;25997;50.214;19.354;2022-11-20T03:15:27;97433.06;;;-5.02;49.46
40285;BME280;25997;50.214;19.354;2022-11-20T03:18:29;97434.47;;;-5.06;49.44
40285;BME280;25997;50.214;19.354;2022-11-20T03:21:32;97429.25;;;-5.07;49.55
40285;BME280;25997;50.214;19.354;2022-11-20T03:24:35;97430.91;;;-5.08;49.34
40285;BME280;25997;50.214;19.354;2022-11-20T03:27:39;97434.25;;;-5.09;48.87
40285;BME280;25997;50.214;19.354;2022-11-20T03:30:42;97435.78;;;-5.11;48.90
40285;BME280;25997;50.214;19.354;2022-11-20T03:33:44;97438.50;;;-5.09;49.36
40285;BME280;25997;50.214;19.354;2022-11-20T03:36:47;97435.38;;;-5.05;49.65
40285;BME280;25997;50.214;19.354;2022-11-20T03:39:49;97435.47;;;-5.04;49.30
40285;BME280;25997;50.214;19.354;2022-11-20T03:42:53;97436.03;;;-5.08;48.65
40285;BME280;25997;50.214;19.354;2022-11-20T03:45:56;97431.88;;;-5.17;48.56
40285;BME280;25997;50.214;19.354;2022-11-20T03:48:59;97437.63;;;-5.31;48.95
40285;BME280;25997;50.214;19.354;2022-11-20T03:52:01;97429.97;;;-5.20;49.93
40285;BME280;25997;50.214;19.354;2022-11-20T03:55:04;97435.78;;;-5.11;49.39
40285;BME280;25997;50.214;19.354;2022-11-20T03:58:08;97437.84;;;-5.07;49.18
40285;BME280;25997;50.214;19.354;2022-11-20T04:01:13;97436.25;;;-5.16;48.45
40285;BME280;25997;50.214;19.354;2022-11-20T04:04:15;97439.28;;;-5.32;48.50
40285;BME280;25997;50.214;19.354;2022-11-20T04:07:18;97431.88;;;-5.51;48.28
40285;BME280;25997;50.214;19.354;2022-11-20T04:10:20;97420.81;;;-5.61;48.30
40285;BME280;25997;50.214;19.354;2022-11-20T04:13:24;97420.47;;;-5.66;48.94
40285;BME280;25997;50.214;19.354;2022-11-20T04:16:29;97420.81;;;-5.61;48.97
40285;BME280;25997;50.214;19.354;2022-11-20T04:19:32;97416.06;;;-5.57;48.79
40285;BME280;25997;50.214;19.354;2022-11-20T04:22:34;97411.97;;;-5.55;48.88
40285;BME280;25997;50.214;19.354;2022-11-20T04:25:37;97414.63;;;-5.53;48.88
40285;BME280;25997;50.214;19.354;2022-11-20T04:28:41;97411.97;;;-5.55;48.73
40285;BME280;25997;50.214;19.354;2022-11-20T04:31:43;97399.44;;;-5.52;49.04
40285;BME280;25997;50.214;19.354;2022-11-20T04:34:46;97407.66;;;-5.44;49.15
40285;BME280;25997;50.214;19.354;2022-11-20T04:37:51;97399.47;;;-5.40;49.17
40285;BME280;25997;50.214;19.354;2022-11-20T04:40:56;97395.38;;;-5.26;49.57
40285;BME280;25997;50.214;19.354;2022-11-20T04:44:02;97394.16;;;-5.20;49.61
40285;BME280;25997;50.214;19.354;2022-11-20T04:47:05;97386.75;;;-5.17;49.27
40285;BME280;25997;50.214;19.354;2022-11-20T04:50:08;97388.50;;;-5.27;48.73
40285;BME280;25997;50.214;19.354;2022-11-20T04:53:11;97383.09;;;-5.42;48.43
40285;BME280;25997;50.214;19.354;2022-11-20T04:56:14;97386.59;;;-5.63;48.21
40285;BME280;25997;50.214;19.354;2022-11-20T04:59:18;97391.28;;;-5.79;48.42
40285;BME280;25997;50.214;19.354;2022-11-20T05:02:20;97386.66;;;-5.95;48.34
40285;BME280;25997;50.214;19.354;2022-11-20T05:05:23;97380.81;;;-6.04;48.60
40285;BME280;25997;50.214;19.354;2022-11-20T05:08:25;97380.59;;;-6.07;48.73
40285;BME280;25997;50.214;19.354;2022-11-20T05:11:28;97373.06;;;-6.05;48.91
40285;BME280;25997;50.214;19.354;2022-11-20T05:14:32;97371.88;;;-5.99;49.25
40285;BME280;25997;50.214;19.354;2022-11-20T05:17:35;97366.38;;;-5.82;49.58
40285;BME280;25997;50.214;19.354;2022-11-20T05:20:38;97372.00;;;-5.64;50.05
40285;BME280;25997;50.214;19.354;2022-11-20T05:23:41;97372.88;;;-5.54;49.41
40285;BME280;25997;50.214;19.354;2022-11-20T05:26:44;97367.19;;;-5.50;49.20
40285;BME280;25997;50.214;19.354;2022-11-20T05:29:48;97357.34;;;-5.33;50.34
40285;BME280;25997;50.214;19.354;2022-11-20T05:32:50;97365.97;;;-5.10;50.92
40285;BME280;25997;50.214;19.354;2022-11-20T05:35:53;97353.19;;;-4.87;50.82
40285;BME280;25997;50.214;19.354;2022-11-20T05:38:59;97356.31;;;-4.79;49.61
40285;BME280;25997;50.214;19.354;2022-11-20T05:42:02;97352.06;;;-4.90;49.32
40285;BME280;25997;50.214;19.354;2022-11-20T05:45:23;97355.97;;;-4.84;50.55
40285;BME280;25997;50.214;19.354;2022-11-20T05:48:25;97352.31;;;-4.76;50.30
40285;BME280;25997;50.214;19.354;2022-11-20T05:51:28;97358.19;;;-4.88;49.11
40285;BME280;25997;50.214;19.354;2022-11-20T05:54:31;97348.06;;;-4.87;50.22
40285;BME280;25997;50.214;19.354;2022-11-20T05:57:34;97347.50;;;-4.71;50.48
40285;BME280;25997;50.214;19.354;2022-11-20T06:00:38;97342.72;;;-4.55;50.57
40285;BME280;25997;50.214;19.354;2022-11-20T06:03:41;97351.41;;;-4.41;50.43
40285;BME280;25997;50.214;19.354;2022-11-20T06:06:46;97357.06;;;-4.34;50.07
40285;BME280;25997;50.214;19.354;2022-11-20T06:09:49;97358.97;;;-4.31;49.98
40285;BME280;25997;50.214;19.354;2022-11-20T06:12:51;97365.19;;;-4.28;49.67
40285;BME280;25997;50.214;19.354;2022-11-20T06:15:55;97354.28;;;-4.37;49.26
40285;BME280;25997;50.214;19.354;2022-11-20T06:18:58;97364.34;;;-4.51;48.96
40285;BME280;25997;50.214;19.354;2022-11-20T06:22:00;97368.13;;;-4.70;49.10
40285;BME280;25997;50.214;19.354;2022-11-20T06:25:03;97359.19;;;-4.86;48.94
40285;BME280;25997;50.214;19.354;2022-11-20T06:28:06;97367.31;;;-4.92;48.86
40285;BME280;25997;50.214;19.354;2022-11-20T06:31:13;97364.75;;;-5.03;48.76
40285;BME280;25997;50.214;19.354;2022-11-20T06:34:16;97366.63;;;-5.12;49.97
40285;BME280;25997;50.214;19.354;2022-11-20T06:37:18;97366.84;;;-4.98;50.67
40285;BME280;25997;50.214;19.354;2022-11-20T06:40:21;97367.66;;;-4.87;50.62
40285;BME280;25997;50.214;19.354;2022-11-20T06:43:24;97358.31;;;-4.75;51.00
40285;BME280;25997;50.214;19.354;2022-11-20T06:46:28;97364.34;;;-4.63;51.01
40285;BME280;25997;50.214;19.354;2022-11-20T06:49:30;97352.53;;;-4.49;50.72
40285;BME280;25997;50.214;19.354;2022-11-20T06:52:33;97346.84;;;-4.45;49.57
40285;BME280;25997;50.214;19.354;2022-11-20T06:55:35;97347.50;;;-4.48;49.22
40285;BME280;25997;50.214;19.354;2022-11-20T06:58:38;97344.38;;;-4.44;50.02
40285;BME280;25997;50.214;19.354;2022-11-20T07:01:42;97344.38;;;-4.32;49.82
40285;BME280;25997;50.214;19.354;2022-11-20T07:04:44;97342.56;;;-4.22;49.62
40285;BME280;25997;50.214;19.354;2022-11-20T07:07:47;97334.75;;;-4.12;49.66
40285;BME280;25997;50.214;19.354;2022-11-20T07:10:49;97329.63;;;-4.12;49.69
40285;BME280;25997;50.214;19.354;2022-11-20T07:13:52;97331.53;;;-4.09;50.16
40285;BME280;25997;50.214;19.354;2022-11-20T07:16:56;97332.44;;;-3.96;50.40
40285;BME280;25997;50.214;19.354;2022-11-20T07:19:58;97321.09;;;-3.87;49.99
40285;BME280;25997;50.214;19.354;2022-11-20T07:23:01;97331.63;;;-3.71;50.44
40285;BME280;25997;50.214;19.354;2022-11-20T07:26:04;97333.56;;;-3.56;50.35
40285;BME280;25997;50.214;19.354;2022-11-20T07:29:07;97339.91;;;-3.38;50.66
40285;BME280;25997;50.214;19.354;2022-11-20T07:32:11;97337.97;;;-3.16;50.68
40285;BME280;25997;50.214;19.354;2022-11-20T07:35:14;97345.75;;;-3.02;50.22
40285;BME280;25997;50.214;19.354;2022-11-20T07:38:16;97338.63;;;-2.93;50.23
40285;BME280;25997;50.214;19.354;2022-11-20T07:41:19;97338.84;;;-2.77;50.03
40285;BME280;25997;50.214;19.354;2022-11-20T07:44:21;97339.75;;;-2.64;49.34
40285;BME280;25997;50.214;19.354;2022-11-20T07:47:25;97351.22;;;-2.59;48.95
40285;BME280;25997;50.214;19.354;2022-11-20T07:50:28;97340.72;;;-2.62;48.41
40285;BME280;25997;50.214;19.354;2022-11-20T07:53:30;97343.28;;;-2.62;48.67
40285;BME280;25997;50.214;19.354;2022-11-20T07:56:33;97339.44;;;-2.55;48.61
40285;BME280;25997;50.214;19.354;2022-11-20T07:59:35;97341.69;;;-2.47;49.27
40285;BME280;25997;50.214;19.354;2022-11-20T08:02:41;97348.41;;;-2.35;49.38
40285;BME280;25997;50.214;19.354;2022-11-20T08:05:44;97353.75;;;-2.19;49.47
40285;BME280;25997;50.214;19.354;2022-11-20T08:08:46;97353.56;;;-2.09;49.52
40285;BME280;25997;50.214;19.354;2022-11-20T08:11:49;97357.84;;;-1.95;50.19
40285;BME280;25997;50.214;19.354;2022-11-20T08:15:09;97353.53;;;-1.69;50.33
40285;BME280;25997;50.214;19.354;2022-11-20T08:18:13;97350.63;;;-1.47;50.30
40285;BME280;25997;50.214;19.354;2022-11-20T08:21:16;97361.28;;;-1.26;50.14
40285;BME280;25997;50.214;19.354;2022-11-20T08:24:18;97349.16;;;-1.00;50.05
40285;BME280;25997;50.214;19.354;2022-11-20T08:27:21;97351.56;;;-0.73;50.13
40285;BME280;25997;50.214;19.354;2022-11-20T08:30:23;97353.59;;;-0.53;49.96
40285;BME280;25997;50.214;19.354;2022-11-20T08:33:27;97351.63;;;-0.28;49.82
40285;BME280;25997;50.214;19.354;2022-11-20T08:36:32;97345.63;;;-0.12;49.64
40285;BME280;25997;50.214;19.354;2022-11-20T08:39:35;97351.97;;;0.09;49.41
40285;BME280;25997;50.214;19.354;2022-11-20T08:42:45;97349.97;;;0.19;49.16
40285;BME280;25997;50.214;19.354;2022-11-20T08:45:48;97347.44;;;0.35;49.07
40285;BME280;25997;50.214;19.354;2022-11-20T08:48:52;97351.97;;;0.56;49.28
40285;BME280;25997;50.214;19.354;2022-11-20T08:51:55;97358.09;;;0.74;49.05
40285;BME280;25997;50.214;19.354;2022-11-20T08:54:57;97351.19;;;0.89;49.01
40285;BME280;25997;50.214;19.354;2022-11-20T08:58:03;97355.19;;;1.00;48.61
40285;BME280;25997;50.214;19.354;2022-11-20T09:01:05;97353.72;;;1.05;48.97
40285;BME280;25997;50.214;19.354;2022-11-20T09:04:09;97356.47;;;1.08;48.65
40285;BME280;25997;50.214;19.354;2022-11-20T09:07:12;97354.91;;;1.11;48.89
40285;BME280;25997;50.214;19.354;2022-11-20T09:10:15;97353.22;;;1.12;48.33
40285;BME280;25997;50.214;19.354;2022-11-20T09:13:17;97347.50;;;1.17;48.58
40285;BME280;25997;50.214;19.354;2022-11-20T09:16:20;97344.84;;;1.34;48.73
40285;BME280;25997;50.214;19.354;2022-11-20T09:19:25;97344.44;;;1.42;48.36
40285;BME280;25997;50.214;19.354;2022-11-20T09:22:27;97352.19;;;1.42;48.41
40285;BME280;25997;50.214;19.354;2022-11-20T09:25:30;97352.50;;;1.48;48.57
40285;BME280;25997;50.214;19.354;2022-11-20T09:28:32;97347.69;;;1.56;48.48
40285;BME280;25997;50.214;19.354;2022-11-20T09:31:35;97348.13;;;1.65;48.24
40285;BME280;25997;50.214;19.354;2022-11-20T09:34:39;97350.66;;;1.81;48.34
40285;BME280;25997;50.214;19.354;2022-11-20T09:37:41;97351.78;;;1.86;48.10
40285;BME280;25997;50.214;19.354;2022-11-20T09:40:49;97347.91;;;1.95;47.88
40285;BME280;25997;50.214;19.354;2022-11-20T09:44:00;97343.63;;;1.96;47.64
40285;BME280;25997;50.214;19.354;2022-11-20T09:47:08;97350.88;;;2.03;47.86
40285;BME280;25997;50.214;19.354;2022-11-20T09:50:25;97344.34;;;2.11;47.82
40285;BME280;25997;50.214;19.354;2022-11-20T09:53:35;97342.28;;;2.22;48.17
40285;BME280;25997;50.214;19.354;2022-11-20T09:56:45;97345.81;;;2.24;47.82
40285;BME280;25997;50.214;19.354;2022-11-20T09:59:52;97345.94;;;2.27;47.91
40285;BME280;25997;50.214;19.354;2022-11-20T10:03:01;97335.59;;;2.27;48.09
40285;BME280;25997;50.214;19.354;2022-11-20T10:06:10;97334.00;;;2.29;47.84
40285;BME280;25997;50.214;19.354;2022-11-20T10:09:21;97329.25;;;2.20;47.66
40285;BME280;25997;50.214;19.354;2022-11-20T10:12:33;97327.22;;;2.13;48.00
40285;BME280;25997;50.214;19.354;2022-11-20T10:15:51;97323.63;;;2.11;48.02
40285;BME280;25997;50.214;19.354;2022-11-20T10:19:04;97331.19;;;2.24;47.98
40285;BME280;25997;50.214;19.354;2022-11-20T10:22:19;97318.50;;;2.49;47.83
40285;BME280;25997;50.214;19.354;2022-11-20T10:25:28;97311.72;;;2.70;47.46
40285;BME280;25997;50.214;19.354;2022-11-20T10:28:46;97306.25;;;2.84;46.98
40285;BME280;25997;50.214;19.354;2022-11-20T10:31:54;97309.13;;;2.90;46.61
40285;BME280;25997;50.214;19.354;2022-11-20T10:35:01;97300.41;;;2.88;46.44
40285;BME280;25997;50.214;19.354;2022-11-20T10:38:11;97301.06;;;2.84;46.17
40285;BME280;25997;50.214;19.354;2022-11-20T10:41:20;97295.22;;;2.88;46.04
40285;BME280;25997;50.214;19.354;2022-11-20T10:44:29;97281.78;;;2.96;46.08
40285;BME280;25997;50.214;19.354;2022-11-20T10:47:50;97284.00;;;3.08;45.63
40285;BME280;25997;50.214;19.354;2022-11-20T10:51:03;97285.41;;;3.00;45.45
40285;BME280;25997;50.214;19.354;2022-11-20T10:54:18;97274.88;;;2.97;45.03
40285;BME280;25997;50.214;19.354;2022-11-20T10:57:31;97272.34;;;2.98;45.06
40285;BME280;25997;50.214;19.354;2022-11-20T11:00:37;97273.19;;;2.97;45.52
40285;BME280;25997;50.214;19.354;2022-11-20T11:03:41;97281.78;;;2.96;45.60
40285;BME280;25997;50.214;19.354;2022-11-20T11:06:47;97283.47;;;2.77;45.30
40285;BME280;25997;50.214;19.354;2022-11-20T11:09:53;97266.78;;;2.70;45.05
40285;BME280;25997;50.214;19.354;2022-11-20T11:12:56;97264.78;;;2.64;45.05
40285;BME280;25997;50.214;19.354;2022-11-20T11:15:59;97266.72;;;2.68;45.26
40285;BME280;25997;50.214;19.354;2022-11-20T11:19:06;97270.31;;;2.72;45.22
40285;BME280;25997;50.214;19.354;2022-11-20T11:22:15;97270.78;;;2.83;45.28
40285;BME280;25997;50.214;19.354;2022-11-20T11:25:24;97260.97;;;2.95;45.40
40285;BME280;25997;50.214;19.354;2022-11-20T11:28:27;97263.22;;;2.87;45.03
40285;BME280;25997;50.214;19.354;2022-11-20T11:31:31;97258.19;;;2.90;45.52
40285;BME280;25997;50.214;19.354;2022-11-20T11:34:35;97260.84;;;2.92;45.55
40285;BME280;25997;50.214;19.354;2022-11-20T11:37:38;97256.53;;;2.92;45.58
40285;BME280;25997;50.214;19.354;2022-11-20T11:40:43;97256.50;;;2.91;45.50
40285;BME280;25997;50.214;19.354;2022-11-20T11:43:51;97267.81;;;2.93;45.37
40285;BME280;25997;50.214;19.354;2022-11-20T11:47:25;97258.72;;;2.83;45.71
40285;BME280;25997;50.214;19.354;2022-11-20T11:50:29;97253.97;;;2.73;45.81
40285;BME280;25997;50.214;19.354;2022-11-20T11:53:33;97254.91;;;2.75;45.86
40285;BME280;25997;50.214;19.354;2022-11-20T11:56:39;97261.84;;;2.76;45.91
40285;BME280;25997;50.214;19.354;2022-11-20T11:59:51;97259.59;;;2.84;45.73
40285;BME280;25997;50.214;19.354;2022-11-20T12:03:05;97248.97;;;2.78;45.88
40285;BME280;25997;50.214;19.354;2022-11-20T12:06:13;97236.06;;;2.79;46.24
40285;BME280;25997;50.214;19.354;2022-11-20T12:09:18;97233.97;;;2.90;46.31
40285;BME280;25997;50.214;19.354;2022-11-20T12:12:27;97225.59;;;2.95;45.95
40285;BME280;25997;50.214;19.354;2022-11-20T12:15:33;97224.22;;;3.05;45.46
40285;BME280;25997;50.214;19.354;2022-11-20T12:18:36;97217.84;;;2.97;46.05
40285;BME280;25997;50.214;19.354;2022-11-20T12:21:47;97216.22;;;2.99;45.90
40285;BME280;25997;50.214;19.354;2022-11-20T12:24:57;97218.03;;;3.01;46.04
40285;BME280;25997;50.214;19.354;2022-11-20T12:31:48;97217.41;;;3.07;45.54
40285;BME280;25997;50.214;19.354;2022-11-20T12:35:00;97213.06;;;3.06;46.03
40285;BME280;25997;50.214;19.354;2022-11-20T12:38:20;97214.31;;;3.15;45.83
40285;BME280;25997;50.214;19.354;2022-11-20T12:41:44;97209.44;;;3.23;45.97
40285;BME280;25997;50.214;19.354;2022-11-20T12:45:38;97207.59;;;3.41;45.38
40285;BME280;25997;50.214;19.354;2022-11-20T12:49:02;97191.53;;;3.51;45.76
40285;BME280;25997;50.214;19.354;2022-11-20T12:52:24;97182.63;;;3.67;45.79
40285;BME280;25997;50.214;19.354;2022-11-20T12:55:43;97174.81;;;3.65;45.55
40285;BME280;25997;50.214;19.354;2022-11-20T12:59:09;97172.13;;;3.62;45.60
40285;BME280;25997;50.214;19.354;2022-11-20T13:02:25;97164.72;;;3.73;45.60
40285;BME280;25997;50.214;19.354;2022-11-20T13:05:37;97163.53;;;3.87;45.45
40285;BME280;25997;50.214;19.354;2022-11-20T13:08:47;97160.53;;;4.22;45.38
40285;BME280;25997;50.214;19.354;2022-11-20T13:11:59;97159.13;;;4.32;44.88
40285;BME280;25997;50.214;19.354;2022-11-20T13:15:08;97151.38;;;4.57;45.04
40285;BME280;25997;50.214;19.354;2022-11-20T13:18:19;97161.19;;;5.16;44.84
40285;BME280;25997;50.214;19.354;2022-11-20T13:21:34;97158.28;;;5.33;43.92
40285;BME280;25997;50.214;19.354;2022-11-20T13:24:37;97151.22;;;5.56;43.76
40285;BME280;25997;50.214;19.354;2022-11-20T13:27:47;97153.88;;;5.86;43.61
40285;BME280;25997;50.214;19.354;2022-11-20T13:30:51;97155.69;;;6.18;42.94
40285;BME280;25997;50.214;19.354;2022-11-20T13:33:56;97148.09;;;6.25;42.46
40285;BME280;25997;50.214;19.354;2022-11-20T13:36:59;97149.03;;;6.27;42.73
40285;BME280;25997;50.214;19.354;2022-11-20T13:40:11;97150.19;;;6.37;42.26
40285;BME280;25997;50.214;19.354;2022-11-20T13:43:26;97148.75;;;6.48;42.19
40285;BME280;25997;50.214;19.354;2022-11-20T13:46:37;97153.06;;;6.46;41.85
40285;BME280;25997;50.214;19.354;2022-11-20T13:49:42;97153.50;;;6.63;42.14
40285;BME280;25997;50.214;19.354;2022-11-20T13:52:53;97143.75;;;6.26;41.74
40285;BME280;25997;50.214;19.354;2022-11-20T13:56:00;97137.72;;;6.27;42.36
40285;BME280;25997;50.214;19.354;2022-11-20T13:59:12;97144.88;;;6.34;41.54
40285;BME280;25997;50.214;19.354;2022-11-20T14:02:20;97142.78;;;5.64;42.15
40285;BME280;25997;50.214;19.354;2022-11-20T14:05:26;97133.75;;;4.99;42.77
40285;BME280;25997;50.214;19.354;2022-11-20T14:08:36;97136.06;;;4.41;43.28
40285;BME280;25997;50.214;19.354;2022-11-20T14:11:46;97128.28;;;3.93;43.91
40285;BME280;25997;50.214;19.354;2022-11-20T14:14:51;97134.91;;;3.39;44.39
40285;BME280;25997;50.214;19.354;2022-11-20T14:17:54;97127.31;;;3.01;45.10
40285;BME280;25997;50.214;19.354;2022-11-20T14:21:01;97120.53;;;2.84;45.28
40285;BME280;25997;50.214;19.354;2022-11-20T14:24:05;97118.19;;;2.69;45.58
40285;BME280;25997;50.214;19.354;2022-11-20T14:27:13;97121.03;;;2.55;45.68
40285;BME280;25997;50.214;19.354;2022-11-20T14:30:18;97123.66;;;2.36;45.95
40285;BME280;25997;50.214;19.354;2022-11-20T14:33:21;97117.13;;;2.25;46.19
40285;BME280;25997;50.214;19.354;2022-11-20T14:36:27;97126.47;;;2.21;46.52
40285;BME280;25997;50.214;19.354;2022-11-20T14:39:32;97128.06;;;2.18;46.51
40285;BME280;25997;50.214;19.354;2022-11-20T14:42:35;97120.97;;;2.14;46.48
40285;BME280;25997;50.214;19.354;2022-11-20T14:45:38;97115.28;;;2.02;46.46
40285;BME280;25997;50.214;19.354;2022-11-20T14:48:45;97114.88;;;1.92;46.93
40285;BME280;25997;50.214;19.354;2022-11-20T14:51:58;97113.78;;;1.87;46.80
40285;BME280;25997;50.214;19.354;2022-11-20T14:55:01;97109.13;;;1.80;47.04
40285;BME280;25997;50.214;19.354;2022-11-20T14:58:05;97103.09;;;1.80;47.20
40285;BME280;25997;50.214;19.354;2022-11-20T15:01:12;97101.25;;;1.77;47.07
40285;BME280;25997;50.214;19.354;2022-11-20T15:04:14;97103.75;;;1.76;47.26
40285;BME280;25997;50.214;19.354;2022-11-20T15:07:29;97102.81;;;1.74;47.24
40285;BME280;25997;50.214;19.354;2022-11-20T15:10:32;97087.16;;;1.71;47.33
40285;BME280;25997;50.214;19.354;2022-11-20T15:13:37;97089.88;;;1.74;47.44
40285;BME280;25997;50.214;19.354;2022-11-20T15:16:40;97090.16;;;1.80;47.36
40285;BME280;25997;50.214;19.354;2022-11-20T15:19:43;97086.00;;;1.83;47.51
40285;BME280;25997;50.214;19.354;2022-11-20T15:22:47;97081.63;;;1.82;47.24
40285;BME280;25997;50.214;19.354;2022-11-20T15:25:49;97086.69;;;1.79;47.53
40285;BME280;25997;50.214;19.354;2022-11-20T15:28:52;97082.06;;;1.72;47.54
40285;BME280;25997;50.214;19.354;2022-11-20T15:31:54;97078.56;;;1.72;47.64
40285;BME280;25997;50.214;19.354;2022-11-20T15:34:57;97087.28;;;1.74;47.61
40285;BME280;25997;50.214;19.354;2022-11-20T15:38:01;97084.78;;;1.75;47.84
40285;BME280;25997;50.214;19.354;2022-11-20T15:41:04;97086.47;;;1.75;47.72
40285;BME280;25997;50.214;19.354;2022-11-20T15:44:06;97079.41;;;1.71;47.95
40285;BME280;25997;50.214;19.354;2022-11-20T15:47:09;97077.69;;;1.71;47.82
40285;BME280;25997;50.214;19.354;2022-11-20T15:50:17;97073.66;;;1.78;47.73
40285;BME280;25997;50.214;19.354;2022-11-20T15:53:21;97081.38;;;1.76;48.09
40285;BME280;25997;50.214;19.354;2022-11-20T15:56:24;97077.88;;;1.76;47.83
40285;BME280;25997;50.214;19.354;2022-11-20T15:59:26;97091.44;;;1.70;47.98
40285;BME280;25997;50.214;19.354;2022-11-20T16:02:29;97094.38;;;1.59;48.10
40285;BME280;25997;50.214;19.354;2022-11-20T16:05:32;97088.94;;;1.53;48.34
40285;BME280;25997;50.214;19.354;2022-11-20T16:08:36;97091.38;;;1.50;48.39
40285;BME280;25997;50.214;19.354;2022-11-20T16:11:39;97085.09;;;1.45;48.35
40285;BME280;25997;50.214;19.354;2022-11-20T16:14:41;97079.06;;;1.44;48.44
40285;BME280;25997;50.214;19.354;2022-11-20T16:18:01;97081.50;;;1.41;48.62
40285;BME280;25997;50.214;19.354;2022-11-20T16:21:03;97078.53;;;1.34;48.87